createdAt,value
2023-02-04T00:00:27.434Z,5.20
2023-02-04T00:02:55.181Z,5.45
2023-02-04T00:05:22.882Z,5.30
2023-02-04T00:07:50.606Z,5.40
2023-02-04T00:10:20.046Z,5.43
2023-02-04T00:12:47.706Z,5.97
2023-02-04T00:15:15.466Z,6.07
2023-02-04T00:17:43.223Z,6.10
2023-02-04T00:20:11.682Z,5.38
2023-02-04T00:22:39.469Z,5.65
2023-02-04T00:25:08.420Z,5.40
2023-02-04T00:27:37.535Z,5.72
2023-02-04T00:30:05.583Z,5.10
2023-02-04T00:32:33.319Z,5.57
2023-02-04T00:35:01.789Z,5.60
2023-02-04T00:37:29.482Z,5.85
2023-02-04T00:39:57.171Z,6.00
2023-02-04T00:42:24.937Z,5.88
2023-02-04T00:44:54.677Z,5.68
2023-02-04T00:47:22.466Z,5.60
2023-02-04T00:49:50.180Z,5.70
2023-02-04T00:52:17.891Z,6.18
2023-02-04T00:54:45.622Z,5.75
2023-02-04T00:57:13.314Z,5.70
2023-02-04T00:59:41.009Z,5.72
2023-02-04T01:02:10.264Z,5.15
2023-02-04T01:04:38.021Z,5.38
2023-02-04T01:07:05.755Z,6.07
2023-02-04T01:09:33.967Z,5.72
2023-02-04T01:12:01.714Z,5.40
2023-02-04T01:14:29.522Z,5.10
2023-02-04T01:16:57.258Z,5.57
2023-02-04T01:19:26.465Z,5.57
2023-02-04T01:21:54.150Z,5.65
2023-02-04T01:24:21.880Z,5.28
2023-02-04T01:26:49.564Z,6.05
2023-02-04T01:29:17.312Z,5.47
2023-02-04T01:31:45.112Z,5.55
2023-02-04T01:34:12.808Z,5.35
2023-02-04T01:36:41.881Z,5.57
2023-02-04T01:39:09.625Z,5.55
2023-02-04T01:41:37.383Z,5.57
2023-02-04T01:44:05.149Z,4.90
2023-02-04T01:46:34.417Z,5.35
2023-02-04T01:49:02.482Z,5.75
2023-02-04T01:51:32.014Z,5.72
2023-02-04T01:54:01.436Z,5.97
2023-02-04T01:56:31.414Z,5.75
2023-02-04T01:58:59.587Z,5.47
2023-02-04T02:01:38.502Z,5.82
2023-02-04T02:04:06.924Z,5.05
2023-02-04T02:06:35.818Z,5.80
2023-02-04T02:09:05.509Z,5.03
2023-02-04T02:11:33.886Z,5.38
2023-02-04T02:14:02.019Z,5.22
2023-02-04T02:16:29.978Z,5.72
2023-02-04T02:18:59.947Z,5.53
2023-02-04T02:21:34.970Z,5.57
2023-02-04T02:24:26.052Z,5.75
2023-02-04T02:26:54.590Z,5.45
2023-02-04T02:29:23.277Z,4.97
2023-02-04T02:31:51.724Z,5.05
2023-02-04T02:34:19.569Z,4.88
2023-02-04T02:36:47.335Z,5.90
2023-02-04T02:39:16.599Z,5.22
2023-02-04T02:41:44.327Z,5.75
2023-02-04T02:44:13.357Z,5.78
2023-02-04T02:46:41.514Z,6.45
2023-02-04T02:49:15.619Z,5.53
2023-02-04T02:51:43.983Z,5.22
2023-02-04T02:54:21.031Z,5.35
2023-02-04T02:56:48.989Z,5.18
2023-02-04T02:59:17.848Z,5.22
2023-02-04T03:01:48.293Z,5.65
2023-02-04T03:04:17.128Z,5.72
2023-02-04T03:06:45.042Z,5.43
2023-02-04T03:09:12.906Z,5.63
2023-02-04T03:11:42.172Z,5.40
2023-02-04T03:14:09.953Z,5.35
2023-02-04T03:16:40.383Z,5.20
2023-02-04T03:19:09.583Z,4.93
2023-02-04T03:21:37.976Z,5.93
2023-02-04T03:24:06.417Z,6.35
2023-02-04T03:26:34.558Z,4.97
2023-02-04T03:29:03.782Z,5.50
2023-02-04T03:31:31.561Z,5.97
2023-02-04T03:33:59.405Z,5.55
2023-02-04T03:36:27.101Z,5.15
2023-02-04T03:38:54.808Z,6.03
2023-02-04T03:41:22.627Z,5.38
2023-02-04T03:43:50.339Z,5.38
2023-02-04T03:46:19.557Z,6.15
2023-02-04T03:48:47.300Z,6.10
2023-02-04T03:51:15.085Z,5.28
2023-02-04T03:53:42.771Z,5.60
2023-02-04T03:56:10.949Z,5.57
2023-02-04T03:58:38.670Z,5.68
2023-02-04T04:01:06.724Z,5.43
2023-02-04T04:03:35.869Z,5.30
2023-02-04T04:06:06.291Z,5.15
2023-02-04T04:08:34.461Z,6.00
2023-02-04T04:11:02.158Z,5.95
2023-02-04T04:13:29.861Z,5.57
2023-02-04T04:15:57.602Z,5.32
2023-02-04T04:18:25.314Z,5.55
2023-02-04T04:20:54.393Z,5.28
2023-02-04T04:23:22.106Z,5.55
2023-02-04T04:25:49.831Z,5.22
2023-02-04T04:28:17.779Z,5.10
2023-02-04T04:30:45.821Z,5.68
2023-02-04T04:33:13.606Z,5.47
2023-02-04T04:35:41.332Z,5.22
2023-02-04T04:38:10.439Z,5.30
2023-02-04T04:40:38.162Z,4.85
2023-02-04T04:43:05.900Z,5.63
2023-02-04T04:45:33.617Z,5.60
2023-02-04T04:48:01.363Z,5.43
2023-02-04T04:50:29.063Z,4.50
2023-02-04T04:52:56.917Z,5.18
2023-02-04T04:55:25.990Z,4.63
2023-02-04T04:57:53.665Z,5.70
2023-02-04T05:00:22.681Z,5.60
2023-02-04T05:02:50.445Z,5.15
2023-02-04T05:05:18.292Z,5.43
2023-02-04T05:07:46.072Z,5.57
2023-02-04T05:10:13.822Z,5.78
2023-02-04T05:12:42.949Z,5.93
2023-02-04T05:15:10.943Z,5.80
2023-02-04T05:17:38.697Z,5.30
2023-02-04T05:20:06.916Z,5.25
2023-02-04T05:22:34.658Z,4.95
2023-02-04T05:25:02.392Z,5.93
2023-02-04T05:27:30.090Z,5.72
2023-02-04T05:29:59.220Z,5.90
2023-02-04T05:32:26.951Z,7.13
2023-02-04T05:34:54.747Z,6.53
2023-02-04T05:37:22.445Z,5.63
2023-02-04T05:39:50.146Z,6.40
2023-02-04T05:42:18.016Z,6.00
2023-02-04T05:44:45.718Z,6.30
2023-02-04T05:47:15.127Z,6.50
2023-02-04T05:49:42.804Z,5.85
2023-02-04T05:52:10.498Z,6.10
2023-02-04T05:54:38.165Z,6.35
2023-02-04T05:57:06.215Z,6.57
2023-02-04T05:59:33.926Z,6.15
2023-02-04T06:02:01.642Z,6.20
2023-02-04T06:04:30.758Z,6.05
2023-02-04T06:06:58.463Z,6.05
2023-02-04T06:09:26.126Z,6.90
2023-02-04T06:11:53.780Z,6.05
2023-02-04T06:14:21.452Z,6.03
2023-02-04T06:16:49.131Z,6.85
2023-02-04T06:19:16.858Z,7.00
2023-02-04T06:21:45.901Z,6.30
2023-02-04T06:24:13.634Z,6.55
2023-02-04T06:26:41.309Z,6.80
2023-02-04T06:29:09.011Z,6.55
2023-02-04T06:31:38.390Z,7.28
2023-02-04T06:34:06.578Z,6.85
2023-02-04T06:36:34.255Z,6.55
2023-02-04T06:39:03.303Z,6.93
2023-02-04T06:41:30.977Z,6.70
2023-02-04T06:43:58.662Z,6.47
2023-02-04T06:46:26.383Z,6.40
2023-02-04T06:48:54.044Z,6.95
2023-02-04T06:51:21.740Z,6.20
2023-02-04T06:53:49.472Z,6.85
2023-02-04T06:56:18.517Z,6.60
2023-02-04T06:58:46.193Z,6.45
2023-02-04T07:01:13.839Z,6.75
2023-02-04T07:03:41.582Z,6.53
2023-02-04T07:06:09.378Z,6.05
2023-02-04T07:08:37.072Z,6.93
2023-02-04T07:11:04.710Z,6.75
2023-02-04T07:13:33.899Z,6.07
2023-02-04T07:16:01.634Z,6.18
2023-02-04T07:18:29.350Z,5.93
2023-02-04T07:20:57.061Z,6.18
2023-02-04T07:23:25.375Z,6.28
2023-02-04T07:25:53.872Z,5.93
2023-02-04T07:28:21.541Z,6.40
2023-02-04T07:30:50.657Z,7.32
2023-02-04T07:33:18.499Z,7.80
2023-02-04T07:35:46.271Z,7.57
2023-02-04T07:38:13.941Z,8.02
2023-02-04T07:40:41.636Z,8.60
2023-02-04T07:43:09.355Z,8.63
2023-02-04T07:45:37.122Z,7.78
2023-02-04T07:48:06.932Z,7.25
2023-02-04T07:50:35.077Z,7.30
2023-02-04T07:53:03.102Z,7.65
2023-02-04T07:55:30.859Z,6.80
2023-02-04T07:57:58.556Z,7.07
2023-02-04T08:00:26.260Z,8.15
2023-02-04T08:02:53.948Z,6.82
2023-02-04T08:05:23.121Z,6.78
2023-02-04T08:07:55.329Z,7.10
2023-02-04T08:10:23.066Z,7.32
2023-02-04T08:12:50.728Z,7.43
2023-02-04T08:15:18.396Z,6.50
2023-02-04T08:17:46.080Z,7.25
2023-02-04T08:20:14.013Z,6.57
2023-02-04T08:22:43.112Z,7.05
2023-02-04T08:25:11.668Z,6.70
2023-02-04T08:27:39.497Z,6.45
2023-02-04T08:30:08.577Z,7.20
2023-02-04T08:32:36.576Z,7.53
2023-02-04T08:35:06.401Z,6.93
2023-02-04T08:37:34.282Z,7.55
2023-02-04T08:40:03.417Z,7.20
2023-02-04T08:42:31.609Z,6.13
2023-02-04T08:44:59.402Z,6.70
2023-02-04T08:47:27.259Z,6.80
2023-02-04T08:49:55.123Z,7.65
2023-02-04T08:52:22.832Z,6.45
2023-02-04T08:54:50.589Z,7.47
2023-02-04T08:57:19.717Z,6.82
2023-02-04T08:59:47.474Z,7.05
2023-02-04T09:02:15.263Z,7.03
2023-02-04T09:04:43.095Z,7.70
2023-02-04T09:07:10.836Z,7.25
2023-02-04T09:09:38.640Z,7.80
2023-02-04T09:12:06.411Z,7.15
2023-02-04T09:14:35.619Z,6.70
2023-02-04T09:17:04.192Z,7.07
2023-02-04T09:19:31.954Z,7.45
2023-02-04T09:21:59.631Z,6.97
2023-02-04T09:24:27.418Z,7.03
2023-02-04T09:26:55.163Z,6.30
2023-02-04T09:29:22.981Z,7.72
2023-02-04T09:31:52.179Z,6.63
2023-02-04T09:34:19.902Z,7.20
2023-02-04T09:36:47.613Z,6.72
2023-02-04T09:39:15.331Z,7.20
2023-02-04T09:41:43.836Z,6.57
2023-02-04T09:44:15.669Z,6.95
2023-02-04T09:46:48.096Z,7.22
2023-02-04T09:49:17.222Z,6.97
2023-02-04T09:51:47.034Z,8.23
2023-02-04T09:54:17.276Z,7.68
2023-02-04T09:56:45.498Z,7.88
2023-02-04T09:59:14.901Z,7.95
2023-02-04T10:01:42.659Z,6.97
2023-02-04T10:04:13.711Z,7.15
2023-02-04T10:06:43.867Z,7.13
2023-02-04T10:09:12.678Z,8.80
2023-02-04T10:11:42.546Z,8.80
2023-02-04T10:14:15.570Z,7.13
2023-02-04T10:16:45.038Z,7.35
2023-02-04T10:19:15.397Z,7.50
2023-02-04T10:21:46.125Z,7.68
2023-02-04T10:24:17.354Z,7.32
2023-02-04T10:26:45.037Z,7.90
2023-02-04T10:29:17.881Z,8.07
2023-02-04T10:31:46.964Z,7.97
2023-02-04T10:34:18.952Z,8.25
2023-02-04T10:36:50.300Z,7.68
2023-02-04T10:39:20.330Z,7.57
2023-02-04T10:41:50.119Z,7.72
2023-02-04T10:44:21.212Z,7.93
2023-02-04T10:46:49.419Z,8.32
2023-02-04T10:49:22.965Z,7.30
2023-02-04T10:51:53.787Z,7.15
2023-02-04T10:54:32.225Z,7.40
2023-02-04T10:57:02.062Z,7.93
2023-02-04T10:59:30.031Z,7.85
2023-02-04T11:01:59.687Z,7.80
2023-02-04T11:04:28.831Z,7.82
2023-02-04T11:06:58.086Z,7.72
2023-02-04T11:09:25.993Z,8.07
2023-02-04T11:11:53.773Z,7.95
2023-02-04T11:14:28.230Z,7.45
2023-02-04T11:17:00.796Z,8.07
2023-02-04T11:19:35.316Z,7.65
2023-02-04T11:22:23.779Z,8.60
2023-02-04T11:24:52.650Z,7.93
2023-02-04T11:27:24.838Z,8.48
2023-02-04T11:29:53.177Z,8.23
2023-02-04T11:32:37.677Z,8.45
2023-02-04T11:35:23.201Z,8.50
2023-02-04T11:37:53.224Z,10.00
2023-02-04T11:40:28.998Z,13.18
2023-02-04T11:43:01.593Z,15.02
2023-02-04T11:45:33.134Z,15.95
2023-02-04T11:48:03.731Z,13.23
2023-02-04T11:50:33.060Z,13.55
2023-02-04T11:53:03.210Z,12.60
2023-02-04T11:55:32.982Z,12.73
2023-02-04T11:58:00.814Z,13.65
2023-02-04T12:00:31.840Z,12.60
2023-02-04T12:03:02.183Z,12.98
2023-02-04T12:05:43.993Z,13.50
2023-02-04T12:08:15.049Z,12.80
2023-02-04T12:10:50.057Z,13.77
2023-02-04T12:13:20.062Z,13.52
2023-02-04T12:15:56.351Z,13.65
2023-02-04T12:18:24.070Z,14.43
2023-02-04T12:20:51.797Z,14.32
2023-02-04T12:23:21.275Z,15.70
2023-02-04T12:25:49.265Z,10.25
2023-02-04T12:28:17.729Z,11.48
2023-02-04T12:30:45.571Z,12.60
2023-02-04T12:33:14.962Z,11.30
2023-02-04T12:35:43.223Z,11.45
2023-02-04T12:38:11.338Z,9.98
2023-02-04T12:40:40.395Z,10.10
2023-02-04T12:43:08.185Z,7.15
2023-02-04T12:45:35.921Z,8.55
2023-02-04T12:48:03.880Z,8.38
2023-02-04T12:50:31.703Z,7.93
2023-02-04T12:53:00.847Z,8.05
2023-02-04T12:55:29.998Z,7.25
2023-02-04T12:57:59.585Z,6.38
2023-02-04T13:00:27.736Z,6.93
2023-02-04T13:02:56.145Z,6.88
2023-02-04T13:05:23.978Z,6.60
2023-02-04T13:07:57.671Z,6.95
2023-02-04T13:10:25.503Z,5.95
2023-02-04T13:12:53.310Z,7.07
2023-02-04T13:15:22.741Z,7.95
2023-02-04T13:17:50.813Z,6.50
2023-02-04T13:20:18.968Z,6.50
2023-02-04T13:22:46.694Z,7.00
2023-02-04T13:25:14.716Z,6.72
2023-02-04T13:27:42.547Z,6.75
2023-02-04T13:30:12.719Z,6.95
2023-02-04T13:32:42.104Z,6.07
2023-02-04T13:35:09.921Z,7.00
2023-02-04T13:37:38.160Z,6.85
2023-02-04T13:40:06.281Z,7.78
2023-02-04T13:42:34.091Z,8.18
2023-02-04T13:45:01.869Z,7.20
2023-02-04T13:47:29.659Z,7.55
2023-02-04T13:49:58.923Z,7.53
2023-02-04T13:52:26.742Z,7.05
2023-02-04T13:54:55.400Z,7.55
2023-02-04T13:57:23.254Z,7.32
2023-02-04T13:59:51.123Z,5.95
2023-02-04T14:02:19.017Z,6.75
2023-02-04T14:04:46.857Z,6.65
2023-02-04T14:07:15.979Z,6.85
2023-02-04T14:09:43.818Z,6.25
2023-02-04T14:12:11.591Z,5.90
2023-02-04T14:14:39.417Z,5.00
2023-02-04T14:17:07.253Z,5.40
2023-02-04T14:19:35.142Z,5.55
2023-02-04T14:22:03.059Z,5.68
2023-02-04T14:24:32.367Z,4.88
2023-02-04T14:27:01.545Z,4.38
2023-02-04T14:29:29.251Z,5.28
2023-02-04T14:31:57.037Z,6.55
2023-02-04T14:34:25.844Z,6.10
2023-02-04T14:36:53.647Z,5.78
2023-02-04T14:39:21.558Z,5.80
2023-02-04T14:41:50.721Z,5.28
2023-02-04T14:44:21.009Z,5.00
2023-02-04T14:46:49.757Z,5.28
2023-02-04T14:49:18.229Z,5.10
2023-02-04T14:51:46.009Z,5.10
2023-02-04T14:54:14.663Z,5.15
2023-02-04T14:56:42.404Z,5.78
2023-02-04T14:59:11.631Z,5.47
2023-02-04T15:01:39.492Z,6.30
2023-02-04T15:04:07.271Z,5.70
2023-02-04T15:06:35.040Z,6.15
2023-02-04T15:09:02.890Z,5.93
2023-02-04T15:11:31.519Z,4.95
2023-02-04T15:13:59.352Z,6.20
2023-02-04T15:16:28.492Z,7.00
2023-02-04T15:18:56.476Z,5.90
2023-02-04T15:21:24.316Z,6.53
2023-02-04T15:23:52.078Z,6.20
2023-02-04T15:26:19.991Z,5.72
2023-02-04T15:28:47.806Z,6.35
2023-02-04T15:31:15.759Z,6.40
2023-02-04T15:33:44.957Z,6.55
2023-02-04T15:36:12.928Z,6.35
2023-02-04T15:38:40.782Z,6.18
2023-02-04T15:41:08.608Z,6.07
2023-02-04T15:43:36.442Z,6.28
2023-02-04T15:46:04.340Z,5.38
2023-02-04T15:48:32.364Z,5.25
2023-02-04T15:51:01.592Z,5.43
2023-02-04T15:53:29.429Z,5.30
2023-02-04T15:55:57.190Z,7.63
2023-02-04T15:58:24.926Z,5.55
2023-02-04T16:00:52.659Z,5.97
2023-02-04T16:03:20.448Z,6.28
2023-02-04T16:05:48.252Z,5.78
2023-02-04T16:08:17.414Z,6.25
2023-02-04T16:10:45.167Z,5.68
2023-02-04T16:13:12.891Z,5.80
2023-02-04T16:15:41.472Z,6.68
2023-02-04T16:18:09.218Z,7.00
2023-02-04T16:20:36.995Z,6.50
2023-02-04T16:23:07.116Z,6.53
2023-02-04T16:25:36.319Z,7.38
2023-02-04T16:28:05.542Z,6.97
2023-02-04T16:30:33.411Z,8.30
2023-02-04T16:33:01.184Z,7.80
2023-02-04T16:35:28.962Z,7.15
2023-02-04T16:37:56.657Z,8.27
2023-02-04T16:40:24.479Z,7.45
2023-02-04T16:42:53.626Z,6.88
2023-02-04T16:45:22.634Z,6.90
2023-02-04T16:47:51.715Z,6.70
2023-02-04T16:50:21.991Z,6.35
2023-02-04T16:52:49.799Z,6.65
2023-02-04T16:55:17.759Z,6.55
2023-02-04T16:57:45.608Z,6.45
2023-02-04T17:00:15.818Z,6.45
2023-02-04T17:02:44.236Z,6.50
2023-02-04T17:05:12.143Z,6.85
2023-02-04T17:07:39.901Z,7.55
2023-02-04T17:10:08.253Z,8.68
2023-02-04T17:12:36.081Z,7.85
2023-02-04T17:15:04.065Z,7.18
2023-02-04T17:17:33.298Z,7.63
2023-02-04T17:20:01.102Z,7.50
2023-02-04T17:22:29.002Z,7.80
2023-02-04T17:24:56.844Z,8.48
2023-02-04T17:27:24.710Z,8.18
2023-02-04T17:29:52.626Z,8.77
2023-02-04T17:32:20.424Z,7.90
2023-02-04T17:34:50.895Z,8.25
2023-02-04T17:37:18.695Z,9.00
2023-02-04T17:39:46.469Z,9.27
2023-02-04T17:42:14.285Z,10.50
2023-02-04T17:44:42.748Z,9.60
2023-02-04T17:47:10.897Z,10.63
2023-02-04T17:49:39.004Z,11.05
2023-02-04T17:52:09.482Z,11.05
2023-02-04T17:54:37.249Z,10.52
2023-02-04T17:57:17.348Z,11.05
2023-02-04T17:59:45.378Z,13.05
2023-02-04T18:02:24.699Z,13.73
2023-02-04T18:04:54.579Z,12.85
2023-02-04T18:07:24.178Z,13.73
2023-02-04T18:09:52.188Z,14.02
2023-02-04T18:12:21.220Z,14.50
2023-02-04T18:14:49.009Z,14.80
2023-02-04T18:17:17.141Z,14.40
2023-02-04T18:19:45.360Z,14.32
2023-02-04T18:22:15.801Z,22.02
2023-02-04T18:24:48.560Z,28.70
2023-02-04T18:27:18.880Z,32.20
2023-02-04T18:29:49.632Z,32.22
2023-02-04T18:32:21.833Z,35.30
2023-02-04T18:34:51.883Z,27.63
2023-02-04T18:37:30.726Z,39.13
2023-02-04T18:40:21.110Z,50.47
2023-02-04T18:42:49.724Z,75.45
2023-02-04T18:45:24.213Z,23.25
2023-02-04T18:47:55.010Z,19.83
2023-02-04T18:50:33.636Z,19.19
2023-02-04T18:53:07.372Z,17.25
2023-02-04T18:55:38.709Z,16.00
2023-02-04T18:58:26.325Z,15.45
2023-02-04T19:00:59.471Z,19.55
2023-02-04T19:03:29.468Z,19.35
2023-02-04T19:06:00.233Z,18.85
2023-02-04T19:08:30.277Z,24.00
2023-02-04T19:11:00.413Z,22.20
2023-02-04T19:13:39.545Z,25.25
2023-02-04T19:16:21.393Z,23.13
2023-02-04T19:18:49.801Z,22.03
2023-02-04T19:21:27.448Z,22.63
2023-02-04T19:24:00.237Z,23.20
2023-02-04T19:26:35.970Z,24.98
2023-02-04T19:29:39.591Z,26.55
2023-02-04T19:32:27.459Z,26.80
2023-02-04T19:34:58.590Z,30.13
2023-02-04T19:37:28.346Z,37.13
2023-02-04T19:39:57.250Z,35.38
2023-02-04T19:42:36.810Z,31.73
2023-02-04T19:45:17.983Z,39.63
2023-02-04T19:47:46.643Z,31.80
2023-02-04T19:50:23.818Z,27.50
2023-02-04T19:52:53.313Z,24.27
2023-02-04T19:55:33.615Z,23.17
2023-02-04T19:58:12.269Z,23.05
2023-02-04T20:00:47.944Z,21.35
2023-02-04T20:03:25.754Z,20.65
2023-02-04T20:05:53.766Z,22.23
2023-02-04T20:08:44.305Z,21.27
2023-02-04T20:11:43.438Z,20.80
2023-02-04T20:14:41.567Z,19.80
2023-02-04T20:17:36.445Z,23.52
2023-02-04T20:20:28.522Z,26.50
2023-02-04T20:22:58.428Z,27.98
2023-02-04T20:25:42.090Z,24.42
2023-02-04T20:28:41.186Z,30.65
2023-02-04T20:31:25.682Z,27.85
2023-02-04T20:33:56.086Z,25.45
2023-02-04T20:36:30.557Z,25.67
2023-02-04T20:39:19.214Z,23.02
2023-02-04T20:41:47.028Z,21.52
2023-02-04T20:44:18.318Z,19.92
2023-02-04T20:46:48.056Z,19.77
2023-02-04T20:49:24.307Z,21.90
2023-02-04T20:51:52.987Z,19.88
2023-02-04T20:54:20.785Z,21.40
2023-02-04T20:56:48.617Z,27.30
2023-02-04T20:59:33.736Z,24.33
2023-02-04T21:02:16.312Z,21.63
2023-02-04T21:04:47.157Z,21.02
2023-02-04T21:07:19.225Z,20.42
2023-02-04T21:09:48.201Z,20.00
2023-02-04T21:12:16.868Z,23.33
2023-02-04T21:14:44.863Z,23.75
2023-02-04T21:17:14.015Z,20.33
2023-02-04T21:19:41.779Z,19.55
2023-02-04T21:22:09.509Z,20.92
2023-02-04T21:24:37.277Z,20.88
2023-02-04T21:27:05.248Z,21.63
2023-02-04T21:29:33.078Z,20.35
2023-02-04T21:32:00.882Z,18.25
2023-02-04T21:34:30.022Z,18.33
2023-02-04T21:36:57.784Z,18.00
2023-02-04T21:39:25.600Z,17.83
2023-02-04T21:42:10.134Z,18.00
2023-02-04T21:44:38.173Z,18.35
2023-02-04T21:47:06.289Z,18.98
2023-02-04T21:49:36.904Z,22.60
2023-02-04T21:52:06.812Z,21.25
2023-02-04T21:54:34.672Z,19.33
2023-02-04T21:57:04.426Z,18.83
2023-02-04T21:59:32.277Z,21.58
2023-02-04T22:02:00.473Z,19.65
2023-02-04T22:04:28.384Z,21.55
2023-02-04T22:06:57.620Z,20.55
2023-02-04T22:09:25.385Z,19.33
2023-02-04T22:11:53.166Z,23.80
2023-02-04T22:14:20.904Z,29.52
2023-02-04T22:16:49.557Z,20.60
2023-02-04T22:19:17.322Z,19.73
2023-02-04T22:21:45.128Z,20.08
2023-02-04T22:24:14.360Z,19.30
2023-02-04T22:26:42.075Z,18.88
2023-02-04T22:29:09.786Z,18.67
2023-02-04T22:31:37.537Z,18.70
2023-02-04T22:34:05.513Z,16.55
2023-02-04T22:36:33.306Z,17.35
2023-02-04T22:39:00.987Z,17.98
2023-02-04T22:41:30.332Z,17.55
2023-02-04T22:43:58.173Z,18.08
2023-02-04T22:46:26.048Z,18.05
2023-02-04T22:48:53.983Z,18.58
2023-02-04T22:51:21.830Z,17.67
2023-02-04T22:53:49.599Z,17.98
2023-02-04T22:56:17.427Z,16.65
2023-02-04T22:58:46.627Z,16.17
2023-02-04T23:01:14.514Z,16.17
2023-02-04T23:03:42.334Z,17.55
2023-02-04T23:06:10.662Z,17.05
2023-02-04T23:08:38.414Z,17.83
2023-02-04T23:11:06.462Z,18.10
2023-02-04T23:13:34.315Z,17.83
2023-02-04T23:16:03.592Z,17.00
2023-02-04T23:18:31.375Z,17.75
2023-02-04T23:20:59.114Z,16.55
2023-02-04T23:23:28.692Z,16.40
2023-02-04T23:25:56.494Z,16.58
2023-02-04T23:28:24.181Z,16.27
2023-02-04T23:30:51.951Z,17.77
2023-02-04T23:33:21.207Z,16.55
2023-02-04T23:35:49.391Z,16.77
2023-02-04T23:38:17.195Z,17.42
2023-02-04T23:40:44.943Z,16.33
2023-02-04T23:43:12.789Z,17.02
2023-02-04T23:45:40.665Z,16.02
2023-02-04T23:48:08.437Z,16.10
2023-02-04T23:50:37.686Z,15.50
2023-02-04T23:53:05.439Z,15.98
2023-02-04T23:55:33.732Z,15.60
2023-02-04T23:58:01.770Z,17.70
